Time;durP1;ratioP1;P1;durP2;ratioP2;P2;SDS_P1;SDS_P2;PMS_P1;PMS_P2;Temp;Humidity;BMP_temperature;BMP_pressure;BME280_temperature;BME280_humidity;BME280_pressure;Samples;Min_cycle;Max_cycle;Signal;HPM_P1;HPM_P2
2022/02/17 00:00:34;;;;;;;0.70;0.60;;;10.80;99.90;;;;;;5023471;28;20022;-73
2022/02/17 00:03:00;;;;;;;0.50;0.50;;;10.80;99.90;;;;;;5018389;28;20076;-73
2022/02/17 00:05:26;;;;;;;0.45;0.45;;;10.80;99.90;;;;;;5014486;28;20049;-73
2022/02/17 00:07:52;;;;;;;0.88;0.60;;;11.10;99.90;;;;;;5017464;28;20447;-73
2022/02/17 00:10:19;;;;;;;0.60;0.50;;;11.10;99.90;;;;;;5015213;28;20014;-73
2022/02/17 00:12:45;;;;;;;0.45;0.45;;;11.10;99.90;;;;;;5012305;28;20176;-74
2022/02/17 00:15:11;;;;;;;0.40;0.40;;;11.10;99.90;;;;;;5007929;28;20404;-74
2022/02/17 00:17:38;;;;;;;0.52;0.50;;;11.10;99.90;;;;;;5018852;28;20026;-73
2022/02/17 00:20:04;;;;;;;0.50;0.50;;;11.20;99.90;;;;;;4999316;28;20029;-74
2022/02/17 00:22:30;;;;;;;0.60;0.50;;;11.20;99.90;;;;;;5013116;28;20030;-74
2022/02/17 00:24:55;;;;;;;0.52;0.50;;;11.10;99.90;;;;;;5000134;28;20491;-73
2022/02/17 00:27:21;;;;;;;1.00;0.63;;;11.10;99.90;;;;;;5013438;28;20026;-73
2022/02/17 00:29:46;;;;;;;0.55;0.55;;;11.20;99.90;;;;;;5013273;28;20053;-74
2022/02/17 00:32:12;;;;;;;0.90;0.50;;;11.40;99.90;;;;;;5013070;28;20040;-73
2022/02/17 00:34:38;;;;;;;0.40;0.40;;;11.40;99.90;;;;;;5020989;28;20026;-75
2022/02/17 00:37:04;;;;;;;0.40;0.40;;;11.20;99.90;;;;;;5005245;28;20032;-75
2022/02/17 00:39:30;;;;;;;1.00;0.55;;;11.40;99.90;;;;;;5019614;28;20484;-74
2022/02/17 00:41:56;;;;;;;0.45;0.45;;;11.30;99.90;;;;;;5005500;28;20479;-73
2022/02/17 00:44:22;;;;;;;0.47;0.40;;;11.20;99.90;;;;;;5013008;28;20109;-73
2022/02/17 00:46:48;;;;;;;0.90;0.43;;;11.20;99.90;;;;;;5013058;28;20096;-74
2022/02/17 00:49:14;;;;;;;2.70;0.80;;;11.30;99.90;;;;;;5025642;28;20097;-74
2022/02/17 00:51:40;;;;;;;0.50;0.40;;;11.50;99.90;;;;;;5012872;28;20017;-74
2022/02/17 00:54:05;;;;;;;0.50;0.50;;;11.50;99.90;;;;;;5007726;28;20101;-74
2022/02/17 00:56:31;;;;;;;0.77;0.40;;;11.50;99.90;;;;;;5005130;28;20018;-74
2022/02/17 00:58:57;;;;;;;0.38;0.38;;;11.40;99.90;;;;;;5011547;28;20087;-73
2022/02/17 01:01:22;;;;;;;0.35;0.35;;;11.60;99.90;;;;;;5012602;28;20133;-73
2022/02/17 01:03:48;;;;;;;0.60;0.40;;;11.50;99.90;;;;;;5007773;28;20038;-73
2022/02/17 01:06:13;;;;;;;0.40;0.40;;;11.40;99.90;;;;;;5004765;28;20022;-73
2022/02/17 01:08:40;;;;;;;0.55;0.40;;;11.40;99.90;;;;;;5025884;28;20018;-73
2022/02/17 01:11:05;;;;;;;1.42;0.40;;;11.40;99.90;;;;;;5001059;28;20114;-73
2022/02/17 01:13:31;;;;;;;0.40;0.40;;;11.40;99.90;;;;;;5015922;28;20061;-73
2022/02/17 01:15:56;;;;;;;0.40;0.40;;;11.40;99.90;;;;;;5009577;28;20049;-73
2022/02/17 01:18:22;;;;;;;0.30;0.30;;;11.50;99.90;;;;;;5006044;28;20030;-73
2022/02/17 01:20:49;;;;;;;0.50;0.50;;;11.50;99.90;;;;;;5002625;28;20030;-73
2022/02/17 01:23:14;;;;;;;1.02;0.50;;;11.40;99.90;;;;;;4999257;28;20029;-73
2022/02/17 01:25:42;;;;;;;0.40;0.40;;;11.30;99.90;;;;;;5001447;28;20018;-73
2022/02/17 01:28:07;;;;;;;0.68;0.50;;;11.20;99.90;;;;;;5013573;28;20025;-73
2022/02/17 01:30:33;;;;;;;0.30;0.30;;;11.30;99.90;;;;;;5020851;28;20379;-73
2022/02/17 01:32:58;;;;;;;1.02;0.50;;;11.30;99.90;;;;;;5025639;28;20022;-73
2022/02/17 01:35:24;;;;;;;0.30;0.30;;;11.30;99.90;;;;;;5022127;28;20459;-73
2022/02/17 01:37:49;;;;;;;0.52;0.40;;;11.40;99.90;;;;;;4996425;28;20105;-73
2022/02/17 01:40:15;;;;;;;0.50;0.40;;;11.30;99.90;;;;;;5014736;28;20075;-73
2022/02/17 01:42:41;;;;;;;1.30;0.40;;;11.30;99.90;;;;;;4994727;28;20030;-73
2022/02/17 01:45:08;;;;;;;0.68;0.43;;;11.30;99.90;;;;;;5003905;28;20045;-72
2022/02/17 01:47:34;;;;;;;0.40;0.40;;;11.40;99.90;;;;;;5012012;28;20080;-72
2022/02/17 01:49:59;;;;;;;1.13;0.40;;;11.40;99.90;;;;;;5011227;28;20044;-72
2022/02/17 01:52:25;;;;;;;0.40;0.40;;;11.40;99.90;;;;;;5011795;28;20109;-73
2022/02/17 01:54:51;;;;;;;0.80;0.50;;;11.50;99.90;;;;;;5012055;28;20051;-73
2022/02/17 01:57:21;;;;;;;1.42;0.40;;;11.40;99.90;;;;;;5011857;28;20026;-73
2022/02/17 01:59:47;;;;;;;1.20;0.40;;;11.50;99.90;;;;;;5011844;28;20033;-73
2022/02/17 02:02:13;;;;;;;0.32;0.32;;;11.40;99.90;;;;;;5011529;28;20053;-73
2022/02/17 02:04:39;;;;;;;3.10;0.60;;;11.40;99.90;;;;;;5011985;28;20103;-72
2022/02/17 02:07:06;;;;;;;0.47;0.40;;;11.40;99.90;;;;;;5011967;28;20127;-74
2022/02/17 02:09:32;;;;;;;1.25;0.30;;;11.30;99.90;;;;;;5024230;28;20032;-73
2022/02/17 02:11:57;;;;;;;0.93;0.28;;;11.40;99.90;;;;;;5018171;28;20026;-74
2022/02/17 02:14:23;;;;;;;0.90;0.40;;;11.40;99.90;;;;;;5006903;28;20037;-75
2022/02/17 02:16:50;;;;;;;0.38;0.38;;;11.40;99.90;;;;;;5024532;28;20041;-74
2022/02/17 02:19:15;;;;;;;0.40;0.40;;;11.50;99.90;;;;;;5011761;28;20018;-73
2022/02/17 02:21:41;;;;;;;0.98;0.32;;;11.60;99.90;;;;;;5005953;28;20048;-74
2022/02/17 02:24:06;;;;;;;0.40;0.40;;;11.50;99.90;;;;;;5016611;28;20076;-73
2022/02/17 02:26:32;;;;;;;1.38;0.60;;;11.50;99.90;;;;;;5012512;28;20034;-73
2022/02/17 02:28:59;;;;;;;0.47;0.38;;;11.50;99.90;;;;;;4999810;28;20109;-73
2022/02/17 02:31:25;;;;;;;0.40;0.40;;;11.50;99.90;;;;;;5018326;28;20109;-72
2022/02/17 02:33:50;;;;;;;0.30;0.30;;;11.60;99.90;;;;;;5002773;28;20464;-74
2022/02/17 02:36:16;;;;;;;0.30;0.30;;;11.40;99.90;;;;;;5005086;28;20034;-74
2022/02/17 02:38:42;;;;;;;1.27;0.40;;;11.50;99.90;;;;;;5002627;28;20115;-74
2022/02/17 02:41:08;;;;;;;0.98;0.40;;;11.50;99.90;;;;;;5010028;28;20395;-74
2022/02/17 02:43:35;;;;;;;1.48;0.40;;;11.50;99.90;;;;;;5011496;28;20121;-74
2022/02/17 02:46:01;;;;;;;0.35;0.35;;;11.40;99.90;;;;;;5017244;28;20068;-76
2022/02/17 02:48:27;;;;;;;0.60;0.30;;;11.40;99.90;;;;;;5010932;28;20064;-76
2022/02/17 02:50:52;;;;;;;0.50;0.40;;;11.30;99.90;;;;;;5009920;28;20022;-76
2022/02/17 02:53:18;;;;;;;0.38;0.30;;;11.20;99.90;;;;;;5026794;28;20403;-75
2022/02/17 02:55:46;;;;;;;0.80;0.50;;;11.00;99.90;;;;;;5013247;28;20606;-75
2022/02/17 02:58:14;;;;;;;0.73;0.50;;;11.00;99.90;;;;;;5024969;28;20084;-75
2022/02/17 03:00:41;;;;;;;0.30;0.30;;;11.20;99.90;;;;;;5020164;28;20026;-75
2022/02/17 03:03:08;;;;;;;1.10;0.43;;;11.10;99.90;;;;;;5019782;28;20029;-75
2022/02/17 03:05:33;;;;;;;0.35;0.35;;;11.10;99.90;;;;;;5001800;28;20021;-75
2022/02/17 03:07:59;;;;;;;1.17;0.30;;;11.10;99.90;;;;;;5015053;28;20022;-75
2022/02/17 03:10:27;;;;;;;0.70;0.40;;;11.20;99.90;;;;;;5001630;28;20088;-75
2022/02/17 03:12:53;;;;;;;0.40;0.40;;;11.20;99.90;;;;;;5014944;28;20042;-75
2022/02/17 03:15:20;;;;;;;0.35;0.30;;;11.30;99.90;;;;;;5009104;28;20062;-75
2022/02/17 03:17:46;;;;;;;0.47;0.40;;;11.20;99.90;;;;;;5006463;28;20517;-75
2022/02/17 03:20:11;;;;;;;0.40;0.40;;;11.30;99.90;;;;;;5001528;28;20058;-75
2022/02/17 03:22:38;;;;;;;0.40;0.40;;;11.20;99.90;;;;;;5013392;28;20380;-75
2022/02/17 03:25:05;;;;;;;0.50;0.50;;;11.10;99.90;;;;;;5001742;28;20029;-75
2022/02/17 03:27:31;;;;;;;0.40;0.40;;;11.10;99.90;;;;;;5002054;28;20036;-75
2022/02/17 03:29:56;;;;;;;0.40;0.40;;;11.10;99.90;;;;;;5007907;28;20022;-73
2022/02/17 03:32:22;;;;;;;0.52;0.45;;;10.90;99.90;;;;;;5007318;28;20034;-73
2022/02/17 03:34:48;;;;;;;0.40;0.40;;;10.90;99.90;;;;;;5001257;28;20071;-74
2022/02/17 03:37:13;;;;;;;0.68;0.40;;;11.00;99.90;;;;;;5014635;28;20030;-75
2022/02/17 03:39:39;;;;;;;0.30;0.30;;;11.10;99.90;;;;;;4994386;28;20125;-74
2022/02/17 03:42:05;;;;;;;0.38;0.38;;;11.20;99.90;;;;;;5006732;28;20032;-74
2022/02/17 03:44:31;;;;;;;0.40;0.40;;;11.10;99.90;;;;;;5005313;28;20022;-74
2022/02/17 03:46:57;;;;;;;0.63;0.45;;;11.10;99.90;;;;;;5020656;28;20033;-74
2022/02/17 03:49:23;;;;;;;0.40;0.35;;;11.10;99.90;;;;;;5012742;28;20026;-73
2022/02/17 03:51:51;;;;;;;0.70;0.40;;;11.20;99.90;;;;;;5014026;28;20022;-74
2022/02/17 03:54:18;;;;;;;0.52;0.50;;;11.20;99.90;;;;;;5020782;28;20140;-73
2022/02/17 03:56:43;;;;;;;0.75;0.30;;;11.20;99.90;;;;;;5020467;28;20038;-73
2022/02/17 03:59:09;;;;;;;0.30;0.30;;;11.30;99.90;;;;;;5020278;28;20033;-73
2022/02/17 04:01:36;;;;;;;0.32;0.32;;;11.40;99.90;;;;;;5020648;28;20022;-73
2022/02/17 04:04:04;;;;;;;0.40;0.40;;;11.30;99.90;;;;;;5013888;28;20080;-73
2022/02/17 04:06:30;;;;;;;0.40;0.40;;;11.20;99.90;;;;;;5000787;28;20473;-73
2022/02/17 04:08:56;;;;;;;0.40;0.40;;;11.00;99.90;;;;;;5013776;28;20084;-72
2022/02/17 04:11:22;;;;;;;0.55;0.50;;;10.80;99.90;;;;;;5012237;28;20399;-73
2022/02/17 04:13:49;;;;;;;4.40;0.70;;;10.70;99.90;;;;;;5018559;28;20021;-73
2022/02/17 04:16:16;;;;;;;1.42;0.60;;;10.60;99.90;;;;;;5006293;28;20026;-75
2022/02/17 04:18:42;;;;;;;0.80;0.80;;;10.50;99.90;;;;;;5001076;28;20041;-73
2022/02/17 04:21:08;;;;;;;1.35;0.82;;;10.40;99.90;;;;;;5013276;28;20671;-73
2022/02/17 04:23:34;;;;;;;2.03;0.80;;;10.30;99.90;;;;;;5013415;28;20022;-73
2022/02/17 04:26:00;;;;;;;1.45;0.98;;;10.20;99.90;;;;;;5025324;28;20394;-73
2022/02/17 04:28:26;;;;;;;2.67;1.00;;;10.20;99.90;;;;;;5000816;28;20036;-73
2022/02/17 04:30:52;;;;;;;1.73;1.00;;;10.30;99.90;;;;;;5000778;28;20050;-73
2022/02/17 04:33:17;;;;;;;0.60;0.60;;;10.20;99.90;;;;;;5019418;28;20420;-75
2022/02/17 04:35:43;;;;;;;2.45;0.88;;;10.50;99.90;;;;;;5005659;28;20021;-74
2022/02/17 04:38:09;;;;;;;1.10;0.70;;;10.40;99.90;;;;;;5011927;28;20026;-73
2022/02/17 04:43:18;;;;;;;1.60;0.70;;;10.30;99.90;;;;;;5002705;28;20071;-73
2022/02/17 04:45:44;;;;;;;1.02;0.60;;;10.40;99.90;;;;;;5012045;28;20022;-73
2022/02/17 04:48:10;;;;;;;0.40;0.40;;;10.60;99.90;;;;;;5012997;28;20039;-73
2022/02/17 04:50:35;;;;;;;1.08;0.45;;;10.60;99.90;;;;;;5012743;28;20033;-73
2022/02/17 04:53:01;;;;;;;0.70;0.40;;;10.60;99.90;;;;;;5013003;28;20034;-73
2022/02/17 04:55:26;;;;;;;2.05;0.60;;;10.70;99.90;;;;;;5010208;28;20034;-73
2022/02/17 04:57:52;;;;;;;0.70;0.50;;;10.60;99.90;;;;;;5009823;28;20512;-74
2022/02/17 05:00:18;;;;;;;0.77;0.50;;;10.60;99.90;;;;;;5011356;28;20030;-74
2022/02/17 05:02:44;;;;;;;1.55;0.60;;;10.50;99.90;;;;;;5002640;28;20030;-74
2022/02/17 05:05:09;;;;;;;1.17;0.70;;;10.60;99.90;;;;;;5006154;28;20022;-74
2022/02/17 05:07:35;;;;;;;1.58;0.65;;;10.80;99.90;;;;;;5002188;28;20088;-73
2022/02/17 05:10:00;;;;;;;1.52;0.70;;;10.80;99.90;;;;;;4999534;28;20034;-73
2022/02/17 05:12:26;;;;;;;4.15;0.70;;;10.80;99.90;;;;;;5012641;28;20028;-73
2022/02/17 05:14:51;;;;;;;3.80;0.90;;;10.80;99.90;;;;;;4998311;28;20122;-72
2022/02/17 05:17:17;;;;;;;3.38;0.60;;;10.50;99.90;;;;;;5021521;28;20036;-72
2022/02/17 05:19:43;;;;;;;2.58;0.90;;;10.70;99.90;;;;;;5031835;28;20478;-73
2022/02/17 05:22:08;;;;;;;4.07;1.30;;;10.50;99.90;;;;;;5012382;28;20073;-74
2022/02/17 05:24:34;;;;;;;2.28;0.90;;;10.50;99.90;;;;;;5000607;28;20026;-75
2022/02/17 05:26:59;;;;;;;2.90;1.10;;;10.40;99.90;;;;;;5022050;28;20472;-74
2022/02/17 05:29:25;;;;;;;3.35;1.20;;;10.40;99.90;;;;;;5000888;28;20117;-74
2022/02/17 05:31:50;;;;;;;5.38;1.20;;;10.30;99.90;;;;;;5023451;28;20396;-75
2022/02/17 05:34:17;;;;;;;2.88;1.00;;;10.30;99.90;;;;;;4998109;28;20033;-73
2022/02/17 05:36:43;;;;;;;4.20;1.25;;;10.10;99.90;;;;;;5012365;28;20105;-73
2022/02/17 05:39:09;;;;;;;2.70;1.00;;;10.10;99.90;;;;;;4999421;28;20046;-73
2022/02/17 05:41:34;;;;;;;5.00;1.35;;;10.20;99.90;;;;;;5019953;28;20026;-74
2022/02/17 05:44:00;;;;;;;5.43;1.60;;;10.00;99.90;;;;;;5002458;28;20022;-73
2022/02/17 05:46:25;;;;;;;4.72;1.35;;;10.30;99.90;;;;;;4992579;28;20030;-74
2022/02/17 05:48:51;;;;;;;5.70;1.15;;;10.20;99.90;;;;;;5006871;28;20040;-73
2022/02/17 05:51:19;;;;;;;4.53;1.38;;;10.00;99.90;;;;;;5011928;28;20022;-73
2022/02/17 05:53:46;;;;;;;5.93;1.35;;;10.00;99.90;;;;;;5012057;28;20025;-74
2022/02/17 05:56:11;;;;;;;7.47;1.80;;;10.00;99.90;;;;;;5011946;28;20029;-73
2022/02/17 05:58:37;;;;;;;6.18;1.90;;;9.90;99.90;;;;;;5012876;28;20079;-74
2022/02/17 06:01:04;;;;;;;8.07;2.13;;;9.90;99.90;;;;;;5010378;28;20076;-74
2022/02/17 06:03:29;;;;;;;6.55;1.80;;;10.00;99.90;;;;;;5011817;28;20030;-75
2022/02/17 06:05:55;;;;;;;7.70;2.20;;;9.80;99.90;;;;;;5011160;28;20022;-73
2022/02/17 06:08:21;;;;;;;9.32;2.25;;;9.90;99.90;;;;;;5011652;28;20114;-74
2022/02/17 06:10:47;;;;;;;9.38;1.77;;;9.80;99.90;;;;;;5010338;28;20026;-74
2022/02/17 06:13:13;;;;;;;9.40;2.00;;;9.80;99.90;;;;;;5011775;28;20076;-73
2022/02/17 06:15:38;;;;;;;8.32;2.70;;;9.90;99.90;;;;;;5010470;28;20395;-74
2022/02/17 06:18:04;;;;;;;7.40;1.65;;;9.80;99.90;;;;;;5009527;28;20026;-74
2022/02/17 06:20:30;;;;;;;9.90;1.80;;;9.80;99.90;;;;;;5001434;28;20541;-74
2022/02/17 06:22:56;;;;;;;11.07;2.50;;;9.70;99.90;;;;;;5011648;28;20042;-74
2022/02/17 06:25:22;;;;;;;11.98;2.67;;;9.80;99.90;;;;;;5011682;28;20052;-74
2022/02/17 06:27:48;;;;;;;7.97;1.80;;;9.80;99.90;;;;;;5011512;28;20053;-74
2022/02/17 06:30:15;;;;;;;7.13;2.60;;;9.80;99.90;;;;;;5011248;28;20387;-73
2022/02/17 06:32:53;;;;;;;8.32;2.17;;;9.80;99.90;;;;;;5011561;28;20109;-74
2022/02/17 06:35:24;;;;;;;9.90;2.55;;;9.80;99.90;;;;;;5012200;28;20520;-74
2022/02/17 06:37:50;;;;;;;9.20;2.30;;;9.70;99.90;;;;;;5015503;28;20026;-73
2022/02/17 06:40:17;;;;;;;12.38;2.75;;;9.70;99.90;;;;;;5001785;28;20054;-75
2022/02/17 06:42:43;;;;;;;8.05;2.70;;;9.70;99.90;;;;;;5009142;28;20057;-74
2022/02/17 06:45:09;;;;;;;11.32;2.67;;;9.80;99.90;;;;;;5020864;28;20095;-74
2022/02/17 06:47:35;;;;;;;7.97;2.70;;;9.80;99.90;;;;;;5024371;28;20024;-74
2022/02/17 06:50:01;;;;;;;10.55;2.58;;;9.80;99.90;;;;;;5019124;28;20026;-74
2022/02/17 06:52:26;;;;;;;11.05;2.97;;;9.80;99.90;;;;;;5024967;28;20434;-75
2022/02/17 06:54:52;;;;;;;12.23;3.40;;;9.80;99.90;;;;;;5019871;28;20038;-74
2022/02/17 06:57:21;;;;;;;12.45;2.92;;;9.80;99.90;;;;;;5015111;28;20104;-74
2022/02/17 06:59:48;;;;;;;6.43;2.58;;;9.90;99.90;;;;;;5019145;28;20065;-74
2022/02/17 07:02:14;;;;;;;10.57;2.50;;;9.90;99.90;;;;;;5018031;28;20113;-74
2022/02/17 07:04:39;;;;;;;10.13;2.90;;;10.00;99.90;;;;;;5016760;28;20033;-74
2022/02/17 07:07:05;;;;;;;7.93;2.20;;;9.90;99.90;;;;;;5017687;28;20039;-74
2022/02/17 07:09:31;;;;;;;11.65;3.22;;;9.90;99.90;;;;;;5021062;28;20030;-74
2022/02/17 07:11:56;;;;;;;9.32;2.67;;;9.90;99.90;;;;;;5026265;28;20445;-74
2022/02/17 07:14:25;;;;;;;7.20;2.08;;;10.00;99.90;;;;;;5022123;28;20493;-74
2022/02/17 07:16:57;;;;;;;9.98;2.47;;;9.90;99.90;;;;;;5016441;28;20438;-74
2022/02/17 07:19:23;;;;;;;8.02;2.50;;;9.80;99.90;;;;;;5008315;28;20030;-74
2022/02/17 07:21:50;;;;;;;11.60;3.05;;;9.90;99.90;;;;;;5021149;28;20099;-74
2022/02/17 07:24:19;;;;;;;13.50;2.30;;;9.80;99.90;;;;;;5043391;28;20018;-74
2022/02/17 07:26:45;;;;;;;7.78;2.40;;;9.90;99.90;;;;;;5021208;28;20079;-74
2022/02/17 07:29:13;;;;;;;9.73;2.58;;;9.70;99.90;;;;;;5018614;28;20112;-75
2022/02/17 07:31:38;;;;;;;11.48;2.65;;;9.80;99.90;;;;;;5019700;28;20048;-74
2022/02/17 07:34:04;;;;;;;13.43;2.65;;;9.90;99.90;;;;;;5025798;28;20037;-74
2022/02/17 07:36:30;;;;;;;9.63;2.67;;;9.90;99.90;;;;;;5019757;28;20368;-74
2022/02/17 07:38:56;;;;;;;10.57;3.13;;;9.90;99.90;;;;;;5032274;28;20026;-74
2022/02/17 07:41:22;;;;;;;11.10;2.75;;;9.80;99.90;;;;;;5020496;28;20823;-74
2022/02/17 07:43:47;;;;;;;13.18;3.50;;;9.60;99.90;;;;;;5022276;28;20104;-74
2022/02/17 07:46:13;;;;;;;8.60;3.13;;;9.60;99.90;;;;;;5019188;28;20105;-74
2022/02/17 07:48:39;;;;;;;14.20;3.03;;;9.80;99.90;;;;;;5014582;28;20538;-74
2022/02/17 07:51:06;;;;;;;10.60;2.85;;;9.90;99.90;;;;;;5022098;28;20696;-75
2022/02/17 07:53:32;;;;;;;9.07;2.72;;;9.70;99.90;;;;;;5016270;28;20117;-75
2022/02/17 07:55:57;;;;;;;10.90;3.55;;;9.80;99.90;;;;;;5016064;28;20049;-75
2022/02/17 07:58:23;;;;;;;15.05;3.33;;;9.80;99.90;;;;;;5011143;28;20036;-74
2022/02/17 08:00:49;;;;;;;9.98;3.42;;;9.80;99.90;;;;;;5020205;28;20026;-74
2022/02/17 08:03:14;;;;;;;11.18;2.58;;;9.70;99.90;;;;;;5019921;28;20033;-74
2022/02/17 08:05:40;;;;;;;13.02;3.63;;;9.70;99.90;;;;;;4999384;28;20064;-74
2022/02/17 08:08:07;;;;;;;14.13;2.83;;;9.60;99.90;;;;;;5006061;28;20065;-74
2022/02/17 08:10:34;;;;;;;17.33;3.65;;;9.50;99.90;;;;;;5006967;28;20019;-75
2022/02/17 08:13:00;;;;;;;16.45;3.50;;;9.30;99.90;;;;;;5007544;28;20384;-74
2022/02/17 08:15:26;;;;;;;15.95;3.33;;;8.60;99.90;;;;;;5006962;28;20021;-75
2022/02/17 08:17:51;;;;;;;16.40;3.80;;;8.50;99.90;;;;;;5007073;28;20037;-75
2022/02/17 08:20:17;;;;;;;16.33;3.80;;;8.60;99.90;;;;;;5007303;28;20034;-75
2022/02/17 08:22:54;;;;;;;13.80;3.80;;;8.70;99.90;;;;;;5006655;28;20105;-74
2022/02/17 08:25:21;;;;;;;12.73;3.28;;;8.90;99.90;;;;;;5005871;28;20034;-75
2022/02/17 08:27:47;;;;;;;11.65;2.92;;;9.20;99.90;;;;;;5006966;28;20026;-74
2022/02/17 08:30:13;;;;;;;19.88;4.00;;;9.30;99.90;;;;;;5000307;28;20161;-75
2022/02/17 08:32:39;;;;;;;14.82;3.42;;;9.30;99.90;;;;;;5000264;28;20084;-75
2022/02/17 08:35:07;;;;;;;19.25;3.92;;;9.40;99.90;;;;;;5005825;28;20420;-75
2022/02/17 08:37:32;;;;;;;16.80;4.22;;;9.40;99.90;;;;;;5006724;28;20640;-74
2022/02/17 08:39:58;;;;;;;11.32;2.72;;;9.40;99.90;;;;;;5011584;28;20120;-74
2022/02/17 08:42:23;;;;;;;14.40;3.47;;;9.30;99.90;;;;;;4998627;28;20026;-75
2022/02/17 08:44:49;;;;;;;9.35;2.70;;;9.30;99.90;;;;;;5005235;28;20069;-74
2022/02/17 08:47:17;;;;;;;11.65;3.53;;;9.40;99.90;;;;;;5006744;28;20026;-74
2022/02/17 08:49:43;;;;;;;11.48;2.80;;;9.20;99.90;;;;;;5001457;28;20022;-75
2022/02/17 08:52:09;;;;;;;12.57;2.50;;;9.20;99.90;;;;;;5009190;28;20121;-75
2022/02/17 08:54:35;;;;;;;13.65;3.35;;;9.00;99.90;;;;;;5002421;28;20072;-75
2022/02/17 08:57:01;;;;;;;19.40;4.43;;;8.90;99.90;;;;;;5000044;28;20536;-75
2022/02/17 08:59:26;;;;;;;14.20;3.53;;;8.90;99.90;;;;;;5003821;28;20038;-75
2022/02/17 09:01:53;;;;;;;16.80;3.25;;;8.90;99.90;;;;;;5006154;28;20108;-74
2022/02/17 09:04:19;;;;;;;17.30;4.05;;;8.90;99.90;;;;;;5002425;28;20449;-75
2022/02/17 09:06:47;;;;;;;15.48;3.80;;;8.80;99.90;;;;;;5013876;28;20108;-76
2022/02/17 09:09:12;;;;;;;14.25;3.45;;;9.00;99.90;;;;;;5021842;28;20449;-73
2022/02/17 09:11:38;;;;;;;13.18;3.85;;;9.20;99.90;;;;;;4999282;28;20019;-75
2022/02/17 09:14:03;;;;;;;11.60;3.55;;;9.20;99.90;;;;;;5021540;28;20025;-74
2022/02/17 09:16:29;;;;;;;17.52;3.70;;;9.30;99.90;;;;;;5015114;28;20423;-74
2022/02/17 09:18:55;;;;;;;14.32;3.33;;;9.30;99.90;;;;;;5001637;28;20393;-74
2022/02/17 09:21:21;;;;;;;10.77;3.10;;;9.40;99.90;;;;;;4999037;28;20037;-74
2022/02/17 09:23:46;;;;;;;18.75;3.53;;;9.60;99.90;;;;;;5003885;28;20030;-74
2022/02/17 09:26:12;;;;;;;12.10;3.47;;;9.60;99.90;;;;;;5005937;28;20030;-74
2022/02/17 09:28:38;;;;;;;14.13;4.47;;;9.40;99.90;;;;;;5000124;28;20020;-74
2022/02/17 09:31:04;;;;;;;14.15;4.28;;;9.30;99.90;;;;;;4998973;28;20023;-74
2022/02/17 09:33:29;;;;;;;15.10;3.55;;;9.40;99.90;;;;;;5003975;28;20030;-74
2022/02/17 09:35:55;;;;;;;19.77;4.28;;;9.60;99.90;;;;;;5008046;28;20058;-74
2022/02/17 09:38:21;;;;;;;18.20;4.03;;;9.70;99.90;;;;;;5023584;28;20025;-74
2022/02/17 09:40:47;;;;;;;18.83;4.18;;;9.70;99.90;;;;;;4998921;28;20034;-74
2022/02/17 09:43:12;;;;;;;15.73;4.25;;;9.60;99.90;;;;;;5002623;28;20417;-74
2022/02/17 09:45:44;;;;;;;18.92;3.70;;;9.60;99.90;;;;;;5007350;28;20018;-74
2022/02/17 09:48:11;;;;;;;15.73;3.70;;;9.70;99.90;;;;;;5012139;28;20062;-75
2022/02/17 09:50:36;;;;;;;14.63;4.40;;;9.70;99.90;;;;;;5011926;28;20022;-74
2022/02/17 09:53:02;;;;;;;11.88;3.17;;;9.70;99.90;;;;;;5002296;28;20041;-75
2022/02/17 09:55:28;;;;;;;16.63;4.43;;;9.80;99.90;;;;;;4995594;28;20373;-74
2022/02/17 09:57:54;;;;;;;18.08;3.67;;;10.00;99.90;;;;;;5011959;28;20048;-74
2022/02/17 10:00:19;;;;;;;14.82;4.00;;;9.90;99.90;;;;;;5011671;28;20080;-74
2022/02/17 10:02:45;;;;;;;13.48;3.90;;;9.90;99.90;;;;;;5011841;28;20034;-73
2022/02/17 10:05:15;;;;;;;17.10;4.07;;;9.90;99.90;;;;;;5010567;28;20066;-74
2022/02/17 10:07:42;;;;;;;12.27;3.35;;;9.90;99.90;;;;;;5010673;28;20017;-74
2022/02/17 10:10:13;;;;;;;10.68;2.50;;;9.80;99.90;;;;;;5013071;28;20064;-74
2022/02/17 10:12:49;;;;;;;6.82;2.55;;;8.60;99.90;;;;;;5017120;28;20034;-74
2022/02/17 10:15:28;;;;;;;12.73;2.60;;;7.60;99.90;;;;;;5017217;28;20088;-72
2022/02/17 10:18:10;;;;;;;8.10;2.50;;;7.30;99.90;;;;;;5018250;28;20085;-74
2022/02/17 10:21:03;;;;;;;10.02;2.90;;;6.90;99.90;;;;;;5019529;28;20117;-74
2022/02/17 10:23:31;;;;;;;11.00;4.10;;;6.70;99.90;;;;;;5020694;28;20028;-74
2022/02/17 10:26:07;;;;;;;13.05;3.70;;;6.50;99.90;;;;;;5023645;28;20502;-74
2022/02/17 10:28:34;;;;;;;16.77;3.50;;;6.60;99.90;;;;;;5033856;28;20120;-74
2022/02/17 10:31:00;;;;;;;12.90;3.05;;;6.70;99.90;;;;;;5018830;28;20034;-74
2022/02/17 10:33:45;;;;;;;14.68;3.70;;;6.90;99.90;;;;;;5025081;28;20022;-74
2022/02/17 10:36:13;;;;;;;13.68;3.22;;;6.90;99.90;;;;;;5021934;28;20034;-74
2022/02/17 10:38:40;;;;;;;16.20;3.75;;;6.90;99.90;;;;;;5037405;28;20037;-74
2022/02/17 10:41:05;;;;;;;18.98;3.70;;;6.80;99.90;;;;;;5021417;28;20026;-74
2022/02/17 10:43:32;;;;;;;14.43;2.80;;;6.60;99.90;;;;;;5024362;28;20095;-75
2022/02/17 10:46:10;;;;;;;15.23;3.58;;;6.60;99.90;;;;;;5025682;28;20017;-74
2022/02/17 10:48:37;;;;;;;11.45;2.78;;;6.50;99.90;;;;;;5024267;28;20021;-72
2022/02/17 10:51:13;;;;;;;17.60;3.53;;;6.60;99.90;;;;;;5015551;28;20068;-74
2022/02/17 10:53:58;;;;;;;17.95;3.97;;;6.50;99.90;;;;;;5024686;28;20025;-74
2022/02/17 10:56:24;;;;;;;14.40;3.83;;;6.60;99.90;;;;;;5015383;28;20912;-74
2022/02/17 10:58:51;;;;;;;18.17;3.90;;;6.80;99.90;;;;;;5030738;28;20038;-75
2022/02/17 11:01:20;;;;;;;15.88;4.22;;;7.10;99.90;;;;;;5031900;28;20045;-74
2022/02/17 11:03:48;;;;;;;16.17;4.40;;;7.30;99.90;;;;;;5022866;28;20056;-74
2022/02/17 11:06:15;;;;;;;15.07;4.47;;;7.50;99.90;;;;;;5025860;28;20022;-75
2022/02/17 11:08:45;;;;;;;15.35;4.05;;;7.70;99.90;;;;;;5022500;28;20424;-76
2022/02/17 11:11:13;;;;;;;13.60;4.35;;;8.00;99.90;;;;;;5022281;28;20025;-74
2022/02/17 11:13:46;;;;;;;16.80;4.13;;;8.10;99.90;;;;;;5025705;28;20112;-74
2022/02/17 11:16:12;;;;;;;19.02;4.88;;;8.00;99.90;;;;;;5023581;28;20029;-74
2022/02/17 11:18:39;;;;;;;14.10;3.65;;;8.10;99.90;;;;;;5025513;28;20087;-74
2022/02/17 11:21:05;;;;;;;20.55;4.30;;;8.00;99.90;;;;;;5025405;28;20037;-74
2022/02/17 11:23:36;;;;;;;17.45;4.28;;;7.80;99.90;;;;;;5020968;28;20021;-74
2022/02/17 11:26:04;;;;;;;16.73;4.50;;;7.40;99.90;;;;;;5019988;28;20021;-73
2022/02/17 11:28:38;;;;;;;18.30;5.30;;;7.10;99.90;;;;;;5036901;28;20021;-74
2022/02/17 11:31:10;;;;;;;13.77;4.93;;;7.20;99.90;;;;;;5022258;28;20514;-74
2022/02/17 11:33:39;;;;;;;20.67;4.82;;;7.30;99.90;;;;;;5020472;28;20029;-74
2022/02/17 11:36:08;;;;;;;19.67;4.93;;;7.30;99.90;;;;;;5013107;28;20505;-74
2022/02/17 11:38:36;;;;;;;14.80;4.57;;;7.30;99.90;;;;;;5016445;28;20026;-74
2022/02/17 11:41:10;;;;;;;23.88;5.57;;;7.30;99.90;;;;;;5021116;28;20018;-74
2022/02/17 11:43:38;;;;;;;17.63;5.93;;;7.40;99.90;;;;;;5014775;28;20034;-74
2022/02/17 11:46:04;;;;;;;19.52;5.70;;;7.40;99.90;;;;;;5014515;28;20022;-74
2022/02/17 11:48:45;;;;;;;19.10;4.38;;;7.40;99.90;;;;;;5020630;28;20030;-74
2022/02/17 11:51:12;;;;;;;14.07;4.60;;;7.40;99.90;;;;;;5018929;28;20045;-74
2022/02/17 11:53:39;;;;;;;19.10;6.22;;;7.50;99.90;;;;;;5014119;28;20030;-74
2022/02/17 11:56:15;;;;;;;18.63;4.60;;;7.30;99.90;;;;;;5008352;28;20562;-74
2022/02/17 11:58:40;;;;;;;19.95;4.63;;;7.20;99.90;;;;;;5014265;28;20041;-75
2022/02/17 12:01:33;;;;;;;14.75;4.35;;;7.00;99.90;;;;;;5013777;28;20033;-75
2022/02/17 12:04:25;;;;;;;18.05;5.22;;;6.70;99.90;;;;;;5013895;28;20492;-75
2022/02/17 12:06:53;;;;;;;11.93;2.88;;;6.50;99.90;;;;;;5012611;28;20026;-75
2022/02/17 12:09:38;;;;;;;10.35;2.90;;;6.80;99.90;;;;;;5006027;28;20025;-75
2022/02/17 12:12:09;;;;;;;9.50;2.45;;;7.00;99.90;;;;;;5015066;28;20019;-75
2022/02/17 12:14:39;;;;;;;14.18;3.30;;;7.20;99.90;;;;;;5012379;28;20026;-76
2022/02/17 12:17:07;;;;;;;10.23;3.35;;;7.30;99.90;;;;;;5013474;28;20033;-75
2022/02/17 12:19:33;;;;;;;14.68;3.30;;;7.80;99.90;;;;;;5013344;28;20018;-75
2022/02/17 12:22:13;;;;;;;10.13;3.05;;;7.90;99.90;;;;;;5017733;28;20021;-75
2022/02/17 12:24:42;;;;;;;10.25;2.88;;;8.00;99.90;;;;;;5019622;28;20018;-76
2022/02/17 12:27:18;;;;;;;11.38;3.55;;;8.10;99.90;;;;;;5018067;28;20033;-76
2022/02/17 12:29:44;;;;;;;;;;;8.10;99.90;;;;;;5021442;28;20029;-76
2022/02/17 12:32:17;;;;;;;8.65;2.55;;;8.20;99.90;;;;;;5016494;28;19931;-77
2022/02/17 12:34:43;;;;;;;14.23;3.05;;;8.10;99.90;;;;;;5025838;28;20094;-76
2022/02/17 12:37:19;;;;;;;8.38;2.58;;;8.00;99.90;;;;;;5029340;28;20095;-76
2022/02/17 12:39:51;;;;;;;13.40;2.90;;;7.80;99.90;;;;;;5027420;28;20030;-76
2022/02/17 12:42:17;;;;;;;9.20;2.38;;;7.60;99.90;;;;;;5024034;28;20033;-77
2022/02/17 12:44:44;;;;;;;4.53;1.98;;;7.30;99.90;;;;;;5021488;28;20032;-76
2022/02/17 12:47:11;;;;;;;6.63;2.03;;;6.50;99.90;;;;;;5023383;28;20037;-76
2022/02/17 12:49:37;;;;;;;9.38;2.25;;;6.60;99.90;;;;;;5036348;28;20026;-77